Time;durP1;ratioP1;P1;durP2;ratioP2;P2;SDS_P1;SDS_P2;PMS_P1;PMS_P2;Temp;Humidity;BMP_temperature;BMP_pressure;BME280_temperature;BME280_humidity;BME280_pressure;Samples;Min_cycle;Max_cycle;Signal;HPM_P1;HPM_P2
2023/05/25 00:00:05;;;;;;;10.30;4.45;;;;;;;9.18;100.00;96087.47;1025923;28;20031;-71
2023/05/25 00:00:35;;;;;;;8.45;3.30;;;;;;;9.16;100.00;96082.50;1019130;29;20309;-71
2023/05/25 00:01:06;;;;;;;6.50;3.47;;;;;;;9.17;100.00;96084.06;1018385;29;20780;-71
2023/05/25 00:01:36;;;;;;;10.70;3.42;;;;;;;9.15;100.00;96078.31;1022512;28;20397;-71
2023/05/25 00:02:07;;;;;;;6.95;3.15;;;;;;;8.96;100.00;96051.66;1030444;28;20049;-70
2023/05/25 00:02:38;;;;;;;7.40;3.15;;;;;;;9.09;100.00;96081.13;1034669;28;20443;-71
2023/05/25 00:03:08;;;;;;;8.68;3.58;;;;;;;9.16;100.00;96089.56;1030399;28;20026;-72
2023/05/25 00:03:39;;;;;;;7.18;3.10;;;;;;;9.18;100.00;96093.50;1032180;28;20266;-71
2023/05/25 00:04:09;;;;;;;7.72;3.40;;;;;;;9.09;100.00;96083.72;1030143;28;20045;-71
2023/05/25 00:04:40;;;;;;;8.05;3.40;;;;;;;9.12;100.00;96096.31;1026772;28;20027;-71
2023/05/25 00:05:11;;;;;;;10.60;4.07;;;;;;;9.07;100.00;96083.16;1031270;28;20038;-71
2023/05/25 00:05:41;;;;;;;10.63;3.70;;;;;;;9.13;100.00;96090.06;1026295;28;20270;-71
2023/05/25 00:06:12;;;;;;;10.88;2.97;;;;;;;9.12;100.00;96084.03;1022333;29;20692;-70
2023/05/25 00:06:44;;;;;;;10.00;3.20;;;;;;;9.11;100.00;96086.88;1026457;28;20043;-71
2023/05/25 00:07:15;;;;;;;7.22;3.05;;;;;;;9.10;100.00;96088.72;1026440;28;20110;-71
2023/05/25 00:07:45;;;;;;;10.90;3.42;;;;;;;9.06;100.00;96087.63;1026564;28;20313;-71
2023/05/25 00:08:16;;;;;;;11.18;4.80;;;;;;;9.10;100.00;96091.31;1022296;28;20031;-71
2023/05/25 00:08:47;;;;;;;8.20;3.72;;;;;;;9.08;100.00;96085.53;1024796;28;20134;-71
2023/05/25 00:09:18;;;;;;;9.85;3.67;;;;;;;9.09;100.00;96089.75;1026877;28;20449;-71
2023/05/25 00:09:48;;;;;;;10.15;2.90;;;;;;;9.02;100.00;96077.88;1034413;28;20782;-70
2023/05/25 00:10:18;;;;;;;8.75;3.60;;;;;;;9.05;100.00;96080.78;1027633;28;20030;-71
2023/05/25 00:10:49;;;;;;;5.40;3.20;;;;;;;9.04;100.00;96089.69;1030637;28;20037;-71
2023/05/25 00:11:22;;;;;;;5.30;3.28;;;;;;;9.01;100.00;96079.69;1025603;28;20026;-71
2023/05/25 00:11:52;;;;;;;13.50;4.53;;;;;;;9.03;100.00;96082.88;1026897;28;20035;-71
2023/05/25 00:12:23;;;;;;;8.65;2.88;;;;;;;9.04;100.00;96081.81;1038448;28;20604;-71
2023/05/25 00:12:55;;;;;;;10.32;3.40;;;;;;;9.04;100.00;96083.66;1030570;28;20065;-71
2023/05/25 00:13:26;;;;;;;9.00;3.95;;;;;;;9.03;100.00;96089.94;1033720;28;20037;-71
2023/05/25 00:13:56;;;;;;;12.55;3.15;;;;;;;9.03;100.00;96085.50;1025714;28;20297;-71
2023/05/25 00:14:27;;;;;;;7.65;3.35;;;;;;;9.05;100.00;96090.47;1031119;28;20506;-71
2023/05/25 00:14:57;;;;;;;8.93;3.38;;;;;;;9.03;100.00;96090.72;1038465;28;20037;-71
2023/05/25 00:15:28;;;;;;;8.48;3.17;;;;;;;9.01;100.00;96082.31;1034265;28;20040;-71
2023/05/25 00:15:58;;;;;;;8.73;3.38;;;;;;;9.00;100.00;96087.81;1022137;29;20042;-71
2023/05/25 00:16:30;;;;;;;9.13;3.85;;;;;;;8.99;100.00;96081.78;1018297;29;20036;-71
2023/05/25 00:17:02;;;;;;;11.90;3.33;;;;;;;8.94;100.00;96081.72;1029770;28;20042;-71
2023/05/25 00:17:35;;;;;;;8.57;2.92;;;;;;;8.93;100.00;96082.75;1023520;28;20314;-71
2023/05/25 00:18:06;;;;;;;15.25;3.33;;;;;;;8.94;100.00;96086.94;1030219;28;20333;-70
2023/05/25 00:18:36;;;;;;;9.85;3.47;;;;;;;8.93;100.00;96085.38;1021461;29;20334;-71
2023/05/25 00:19:09;;;;;;;6.30;3.35;;;;;;;8.92;100.00;96086.38;1023903;28;20052;-70
2023/05/25 00:19:42;;;;;;;7.40;3.45;;;;;;;8.84;100.00;96078.97;1026394;28;20034;-71
2023/05/25 00:20:13;;;;;;;9.65;2.90;;;;;;;8.91;100.00;96092.66;1034313;28;20949;-71
2023/05/25 00:20:44;;;;;;;6.35;2.85;;;;;;;8.88;100.00;96080.06;1029494;28;20266;-71
2023/05/25 00:21:15;;;;;;;7.82;3.72;;;;;;;8.81;100.00;96075.00;1025510;28;20274;-71
2023/05/25 00:21:47;;;;;;;8.82;3.20;;;;;;;8.89;100.00;96092.13;1018649;29;20038;-71
2023/05/25 00:22:19;;;;;;;11.15;4.32;;;;;;;8.90;100.00;96088.47;1022567;28;20609;-71
2023/05/25 00:22:51;;;;;;;7.47;3.45;;;;;;;8.87;100.00;96081.88;1022830;28;20287;-71
2023/05/25 00:23:21;;;;;;;7.22;3.28;;;;;;;8.89;100.00;96086.91;1030994;28;20285;-71
2023/05/25 00:23:51;;;;;;;9.85;3.88;;;;;;;8.83;100.00;96083.41;1030359;28;21094;-71
2023/05/25 00:24:22;;;;;;;7.15;3.00;;;;;;;8.82;100.00;96083.63;1031386;28;20037;-70
2023/05/25 00:24:52;;;;;;;9.27;3.08;;;;;;;8.85;100.00;96088.38;1030192;28;20034;-71
2023/05/25 00:25:23;;;;;;;10.50;3.63;;;;;;;8.87;100.00;96089.72;1030442;28;20034;-71
2023/05/25 00:25:53;;;;;;;7.47;3.38;;;;;;;8.88;100.00;96087.91;1030503;28;20034;-71
2023/05/25 00:26:24;;;;;;;6.60;3.05;;;;;;;8.78;100.00;96072.09;1034395;28;20026;-71
2023/05/25 00:26:55;;;;;;;9.05;3.10;;;;;;;8.83;100.00;96083.41;1034186;28;20034;-71
2023/05/25 00:27:26;;;;;;;8.27;2.88;;;;;;;8.90;100.00;96085.84;1026321;28;20062;-71
2023/05/25 00:27:56;;;;;;;5.80;3.10;;;;;;;8.91;100.00;96095.28;1024494;28;20668;-71
2023/05/25 00:28:27;;;;;;;8.13;3.38;;;;;;;8.93;100.00;96087.97;1026549;28;20026;-70
2023/05/25 00:28:59;;;;;;;10.05;4.47;;;;;;;8.91;100.00;96084.81;1030409;28;20026;-71
2023/05/25 00:29:29;;;;;;;9.55;3.20;;;;;;;8.88;100.00;96096.53;1030482;28;20085;-71
2023/05/25 00:30:00;;;;;;;7.60;3.60;;;;;;;8.87;100.00;96083.72;1034172;28;20334;-71
2023/05/25 00:30:30;;;;;;;10.02;3.90;;;;;;;8.89;100.00;96092.13;1026366;28;20043;-71
2023/05/25 00:31:01;;;;;;;8.95;3.42;;;;;;;8.88;100.00;96086.06;1025918;28;20019;-70
2023/05/25 00:31:32;;;;;;;8.35;3.90;;;;;;;8.90;100.00;96085.84;1034171;28;20050;-70
2023/05/25 00:32:02;;;;;;;8.45;3.45;;;;;;;8.90;100.00;96088.47;1026527;28;20026;-71
2023/05/25 00:32:33;;;;;;;8.57;3.28;;;;;;;8.85;100.00;96076.13;1026371;28;20377;-71
2023/05/25 00:33:04;;;;;;;8.23;3.20;;;;;;;8.89;100.00;96076.44;1029910;28;20559;-70
2023/05/25 00:33:34;;;;;;;8.90;3.55;;;;;;;8.96;100.00;96092.72;1030657;28;20105;-70
2023/05/25 00:34:05;;;;;;;10.13;3.65;;;;;;;8.97;100.00;96091.69;1034355;28;20744;-71
2023/05/25 00:34:36;;;;;;;10.60;3.65;;;;;;;9.00;100.00;96088.59;1030197;28;20023;-71
2023/05/25 00:35:07;;;;;;;9.15;3.97;;;;;;;8.99;100.00;96087.03;1034110;28;20033;-71
2023/05/25 00:35:37;;;;;;;11.35;3.88;;;;;;;8.98;100.00;96085.41;1030256;28;20269;-71
2023/05/25 00:36:07;;;;;;;9.13;3.38;;;;;;;8.98;100.00;96096.66;1028835;28;20417;-71
2023/05/25 00:36:38;;;;;;;9.60;3.25;;;;;;;8.96;100.00;96079.66;1030008;28;20615;-70
2023/05/25 00:37:08;;;;;;;12.05;3.53;;;;;;;8.92;100.00;96078.53;1034344;28;20641;-71
2023/05/25 00:37:39;;;;;;;7.55;2.85;;;;;;;8.95;100.00;96081.47;1034334;28;20525;-71
2023/05/25 00:38:13;;;;;;;6.75;3.60;;;;;;;8.93;100.00;96087.97;1027688;28;20279;-71
2023/05/25 00:38:44;;;;;;;10.25;3.90;;;;;;;8.90;100.00;96078.78;1025789;28;20042;-70
2023/05/25 00:39:17;;;;;;;9.07;3.08;;;;;;;8.97;100.00;96094.31;1022751;28;20346;-71
2023/05/25 00:39:48;;;;;;;7.88;3.50;;;;;;;8.95;100.00;96096.38;1029146;28;20053;-71
2023/05/25 00:40:18;;;;;;;6.25;3.47;;;;;;;8.94;100.00;96094.78;1030123;28;20269;-71
2023/05/25 00:40:55;;;;;;;8.98;3.28;;;;;;;8.96;100.00;96098.75;1034412;28;20081;-71
2023/05/25 00:41:25;;;;;;;7.82;3.05;;;;;;;8.96;100.00;96092.72;1026737;28;20102;-70
2023/05/25 00:41:56;;;;;;;9.18;3.47;;;;;;;8.81;100.00;96075.00;1027136;28;20272;-71
2023/05/25 00:42:27;;;;;;;5.70;3.10;;;;;;;8.95;100.00;96096.38;1026358;28;20021;-71
2023/05/25 00:42:57;;;;;;;6.93;3.08;;;;;;;8.97;100.00;96094.31;1026010;28;20022;-71
2023/05/25 00:43:28;;;;;;;8.45;3.78;;;;;;;8.80;100.00;96073.44;1022044;29;20030;-72
2023/05/25 00:43:58;;;;;;;11.60;3.70;;;;;;;8.92;100.00;96102.09;1022186;29;20023;-70
2023/05/25 00:44:30;;;;;;;9.82;3.70;;;;;;;8.95;100.00;96097.19;1018336;29;20028;-71
2023/05/25 00:45:01;;;;;;;6.10;2.80;;;;;;;8.95;100.00;96106.84;1017565;28;20031;-72
2023/05/25 00:45:31;;;;;;;6.45;3.28;;;;;;;8.97;100.00;96096.94;1026206;28;20285;-70
2023/05/25 00:46:02;;;;;;;12.82;3.80;;;;;;;8.95;100.00;96101.59;1022495;28;20016;-71
2023/05/25 00:46:36;;;;;;;8.77;3.17;;;;;;;8.91;100.00;96098.69;1027620;28;20484;-71
2023/05/25 00:47:07;;;;;;;9.88;3.17;;;;;;;8.94;100.00;96106.03;1032698;28;20026;-71
2023/05/25 00:47:38;;;;;;;7.65;3.42;;;;;;;8.95;100.00;96112.06;1030354;28;20257;-72
2023/05/25 00:48:08;;;;;;;7.28;3.85;;;;;;;8.94;100.00;96103.44;1034113;28;20033;-70
2023/05/25 00:48:39;;;;;;;6.95;3.00;;;;;;;8.90;100.00;96098.94;1020772;28;20263;-71
2023/05/25 00:49:10;;;;;;;9.85;3.67;;;;;;;8.93;100.00;96103.69;1026214;28;20089;-72
2023/05/25 00:49:41;;;;;;;13.27;3.42;;;;;;;8.88;100.00;96095.75;1030026;28;20057;-71
2023/05/25 00:50:12;;;;;;;7.35;3.58;;;;;;;8.91;100.00;96105.75;1030148;28;20265;-72
2023/05/25 00:50:44;;;;;;;7.70;3.03;;;;;;;8.87;100.00;96109.88;1030255;28;20018;-71
2023/05/25 00:51:14;;;;;;;7.82;3.20;;;;;;;8.71;100.00;96082.72;1025634;28;20831;-71
2023/05/25 00:51:46;;;;;;;9.95;3.50;;;;;;;8.87;100.00;96099.41;1021959;28;20274;-71
2023/05/25 00:52:16;;;;;;;6.35;3.25;;;;;;;8.89;100.00;96110.44;1022742;28;20082;-71
2023/05/25 00:52:47;;;;;;;7.97;3.15;;;;;;;8.86;100.00;96103.06;1030658;28;20699;-71
2023/05/25 00:53:18;;;;;;;15.32;3.58;;;;;;;8.85;100.00;96104.09;1025933;28;20564;-71
2023/05/25 00:53:48;;;;;;;11.05;3.60;;;;;;;8.83;100.00;96098.31;1022051;28;20027;-71
2023/05/25 00:54:19;;;;;;;8.95;3.65;;;;;;;8.82;100.00;96110.63;1022011;29;20023;-71
2023/05/25 00:54:51;;;;;;;7.30;3.25;;;;;;;8.83;100.00;96103.56;1018431;28;20047;-71
2023/05/25 00:55:21;;;;;;;6.70;3.42;;;;;;;8.84;100.00;96094.66;1030353;28;20034;-71
2023/05/25 00:55:53;;;;;;;16.48;4.15;;;;;;;8.90;100.00;96104.97;1034139;28;20284;-71
2023/05/25 00:56:29;;;;;;;7.60;3.45;;;;;;;8.87;100.00;96099.41;1026307;28;20126;-71
2023/05/25 00:57:02;;;;;;;8.40;3.53;;;;;;;8.90;100.00;96094.50;1026080;28;20273;-71
2023/05/25 00:57:36;;;;;;;7.07;3.60;;;;;;;8.99;100.00;96100.09;1034334;28;20264;-71
2023/05/25 00:58:07;;;;;;;10.25;3.45;;;;;;;8.96;100.00;96092.72;1030252;28;20997;-71
2023/05/25 00:58:38;;;;;;;5.07;2.95;;;;;;;8.97;100.00;96091.69;1029020;28;20265;-71
2023/05/25 00:59:09;;;;;;;8.13;3.45;;;;;;;8.97;100.00;96096.94;1030279;28;20472;-71
2023/05/25 00:59:43;;;;;;;6.70;3.38;;;;;;;9.00;100.00;96103.50;1026250;28;20277;-70
2023/05/25 01:00:14;;;;;;;8.73;2.80;;;;;;;9.00;100.00;96096.44;1021968;29;20093;-70
2023/05/25 01:00:44;;;;;;;8.93;3.55;;;;;;;8.98;100.00;96096.66;1018242;29;20335;-71
2023/05/25 01:01:15;;;;;;;10.20;4.15;;;;;;;9.03;100.00;96095.16;1021623;29;20089;-71
2023/05/25 01:01:46;;;;;;;7.25;3.22;;;;;;;9.04;100.00;96100.16;1034144;28;20029;-71
2023/05/25 01:02:18;;;;;;;6.32;3.75;;;;;;;9.01;100.00;96100.63;1026024;28;20066;-71
2023/05/25 01:02:51;;;;;;;10.45;4.07;;;;;;;9.01;100.00;96100.63;1026223;28;20671;-71
2023/05/25 01:03:26;;;;;;;10.95;3.75;;;;;;;8.98;100.00;96101.91;1022055;28;20366;-71
2023/05/25 01:03:56;;;;;;;8.52;3.72;;;;;;;8.97;100.00;96094.31;1022011;28;20275;-71
2023/05/25 01:04:27;;;;;;;7.43;3.05;;;;;;;8.91;100.00;96097.88;1026105;28;20258;-70
2023/05/25 01:04:59;;;;;;;11.02;3.08;;;;;;;8.81;100.00;96087.28;1026877;28;20038;-71
2023/05/25 01:05:29;;;;;;;9.90;3.65;;;;;;;8.84;100.00;96095.44;1022593;28;20432;-71
2023/05/25 01:06:00;;;;;;;9.15;3.70;;;;;;;8.84;100.00;96097.28;1026277;28;20262;-71
2023/05/25 01:06:32;;;;;;;8.75;3.30;;;;;;;8.89;100.00;96097.34;1022164;29;20070;-71
2023/05/25 01:07:03;;;;;;;10.38;3.78;;;;;;;8.84;100.00;96089.44;1024574;28;20274;-71
2023/05/25 01:07:34;;;;;;;7.72;3.63;;;;;;;8.97;100.00;96102.16;1026133;28;20258;-70
2023/05/25 01:08:04;;;;;;;10.20;3.85;;;;;;;8.94;100.00;96100.81;1026081;28;20676;-71
2023/05/25 01:08:35;;;;;;;7.50;3.95;;;;;;;8.95;100.00;96104.22;1025913;28;20037;-70
2023/05/25 01:09:06;;;;;;;9.52;3.90;;;;;;;8.96;100.00;96101.38;1030020;28;20436;-71
2023/05/25 01:09:37;;;;;;;7.35;3.60;;;;;;;8.92;100.00;96096.84;1026313;28;20026;-71
2023/05/25 01:10:08;;;;;;;9.20;4.10;;;;;;;8.95;100.00;96102.41;1034295;28;20037;-71
2023/05/25 01:10:38;;;;;;;12.48;3.75;;;;;;;8.97;100.00;96105.56;1033996;28;20630;-70
2023/05/25 01:11:10;;;;;;;10.13;3.72;;;;;;;8.96;100.00;96103.19;1021446;28;20015;-71
2023/05/25 01:11:41;;;;;;;8.20;3.63;;;;;;;8.95;100.00;96101.59;1030179;28;20018;-71
2023/05/25 01:12:14;;;;;;;8.32;3.53;;;;;;;8.97;100.00;96097.72;1030025;28;20266;-71
2023/05/25 01:12:44;;;;;;;10.73;4.43;;;;;;;8.92;100.00;96102.91;1026203;28;20262;-71
2023/05/25 01:13:16;;;;;;;7.65;4.00;;;;;;;8.89;100.00;96113.06;1025991;28;20834;-71
2023/05/25 01:13:47;;;;;;;13.05;5.10;;;;;;;8.88;100.00;96107.00;1026070;28;20058;-72
2023/05/25 01:14:19;;;;;;;9.18;3.78;;;;;;;8.88;100.00;96101.00;1030048;28;20264;-71
2023/05/25 01:14:52;;;;;;;6.03;3.45;;;;;;;8.93;100.00;96104.47;1022078;28;20267;-71
2023/05/25 01:15:22;;;;;;;7.80;4.03;;;;;;;8.93;100.00;96107.09;1025520;28;20258;-71
2023/05/25 01:15:52;;;;;;;7.45;3.67;;;;;;;8.89;100.00;96106.00;1026222;28;20262;-71
2023/05/25 01:16:24;;;;;;;9.65;3.53;;;;;;;8.84;100.00;96105.13;1018279;29;20024;-71
2023/05/25 01:16:55;;;;;;;11.13;3.83;;;;;;;8.86;100.00;96105.69;1018450;29;20027;-70
2023/05/25 01:17:27;;;;;;;10.02;3.83;;;;;;;8.85;100.00;96104.91;1026311;28;20262;-71
2023/05/25 01:17:58;;;;;;;7.32;3.42;;;;;;;8.84;100.00;96099.91;1026786;28;20062;-72
2023/05/25 01:18:29;;;;;;;10.13;3.95;;;;;;;8.87;100.00;96109.88;1025533;28;20640;-71
2023/05/25 01:19:00;;;;;;;10.15;4.20;;;;;;;8.88;100.00;96106.22;1022187;29;20102;-71
2023/05/25 01:19:32;;;;;;;8.05;3.60;;;;;;;8.84;100.00;96097.28;1025024;28;20926;-71
2023/05/25 01:20:05;;;;;;;7.95;3.42;;;;;;;8.77;100.00;96088.81;1030051;28;20109;-71
2023/05/25 01:20:36;;;;;;;8.80;3.97;;;;;;;8.78;100.00;96091.19;1030062;28;20696;-69
2023/05/25 01:21:36;;;;;;;7.88;3.65;;;;;;;8.76;100.00;96093.25;1025375;28;20266;-71
2023/05/25 01:22:13;;;;;;;9.02;3.75;;;;;;;8.73;100.00;96094.53;1029842;28;20545;-71
2023/05/25 01:22:47;;;;;;;13.20;4.97;;;;;;;8.71;100.00;96091.34;1027566;28;20023;-71
2023/05/25 01:23:19;;;;;;;9.05;3.40;;;;;;;8.60;100.00;96073.94;1030070;28;20265;-70
2023/05/25 01:23:57;;;;;;;7.70;3.47;;;;;;;8.58;100.00;96078.63;1028714;28;20265;-71
2023/05/25 01:24:55;;;;;;;11.95;4.05;;;;;;;8.66;100.00;96093.13;1019627;29;20390;-72
2023/05/25 01:25:35;;;;;;;10.98;4.15;;;;;;;8.61;100.00;96091.22;1022476;28;20265;-71
2023/05/25 01:26:08;;;;;;;11.45;3.75;;;;;;;8.59;100.00;96082.06;1026857;28;20339;-72
2023/05/25 01:26:45;;;;;;;9.68;4.07;;;;;;;8.59;100.00;96093.31;1022058;28;20489;-70
2023/05/25 01:27:26;;;;;;;16.45;4.32;;;;;;;8.60;100.00;96094.09;1022022;29;20821;-71
2023/05/25 01:28:02;;;;;;;9.52;3.90;;;;;;;8.59;100.00;96093.31;1020419;28;20291;-70
2023/05/25 01:28:39;;;;;;;6.22;3.67;;;;;;;8.56;100.00;96091.16;1022157;28;20788;-71
2023/05/25 01:29:09;;;;;;;13.68;4.18;;;;;;;8.58;100.00;96094.31;1017984;29;20275;-71
2023/05/25 01:29:42;;;;;;;10.63;4.00;;;;;;;8.58;100.00;96089.09;1021937;28;20773;-71
2023/05/25 01:30:13;;;;;;;6.95;3.25;;;;;;;8.55;100.00;96089.59;1030213;28;20416;-71
2023/05/25 01:30:48;;;;;;;10.93;4.38;;;;;;;8.52;100.00;96087.44;1030069;28;20795;-71
2023/05/25 01:31:21;;;;;;;10.95;4.18;;;;;;;8.47;100.00;96085.53;1015436;29;20846;-71
2023/05/25 01:31:51;;;;;;;11.32;4.13;;;;;;;8.49;100.00;96090.53;1018252;29;20780;-71
2023/05/25 01:32:21;;;;;;;13.27;4.50;;;;;;;8.44;100.00;96085.22;1030086;28;20289;-71
2023/05/25 01:32:52;;;;;;;8.73;4.40;;;;;;;8.46;100.00;96077.94;1026070;28;20365;-70
2023/05/25 01:33:23;;;;;;;10.65;4.15;;;;;;;8.45;100.00;96086.81;1026075;28;20087;-71
2023/05/25 01:33:53;;;;;;;6.30;3.80;;;;;;;8.52;100.00;96090.06;1022329;28;20024;-71
2023/05/25 01:34:24;;;;;;;14.35;4.03;;;;;;;8.53;100.00;96094.25;1022226;29;20023;-71
2023/05/25 01:34:56;;;;;;;6.72;3.63;;;;;;;8.50;100.00;96086.88;1022421;28;20039;-70
2023/05/25 01:35:27;;;;;;;11.73;3.78;;;;;;;8.48;100.00;96095.00;1026571;28;20743;-71
2023/05/25 01:35:58;;;;;;;12.23;4.25;;;;;;;8.47;100.00;96090.78;1030229;28;20273;-70
2023/05/25 01:36:29;;;;;;;10.05;4.53;;;;;;;8.46;100.00;96089.19;1030395;28;20029;-70
2023/05/25 01:37:00;;;;;;;9.88;3.65;;;;;;;8.49;100.00;96088.72;1034312;28;20272;-71
2023/05/25 01:37:31;;;;;;;11.82;4.47;;;;;;;8.50;100.00;96089.50;1030154;28;20073;-71
2023/05/25 01:38:01;;;;;;;8.80;3.88;;;;;;;8.48;100.00;96097.59;1025857;28;20121;-71
2023/05/25 01:38:32;;;;;;;7.43;3.60;;;;;;;8.30;100.00;96071.66;1030051;28;20532;-71
2023/05/25 01:39:04;;;;;;;9.98;3.58;;;;;;;8.45;100.00;96094.66;1022020;29;20509;-71
2023/05/25 01:39:35;;;;;;;10.73;4.10;;;;;;;8.47;100.00;96096.00;1021745;29;20027;-71
2023/05/25 01:40:07;;;;;;;8.93;3.70;;;;;;;8.43;100.00;96094.13;1018552;29;20348;-71
2023/05/25 01:40:37;;;;;;;11.80;3.65;;;;;;;8.48;100.00;96094.16;1023184;28;20034;-71
2023/05/25 01:41:08;;;;;;;9.73;4.20;;;;;;;8.50;100.00;96097.34;1021639;28;20743;-70
2023/05/25 01:41:38;;;;;;;9.25;4.25;;;;;;;8.48;100.00;96102.84;1028792;28;20033;-70
2023/05/25 01:42:09;;;;;;;9.80;4.05;;;;;;;8.47;100.00;96095.22;1022151;29;20022;-70
2023/05/25 01:42:39;;;;;;;11.38;3.72;;;;;;;8.48;100.00;96096.78;1022558;28;20335;-72
2023/05/25 01:43:10;;;;;;;8.77;3.80;;;;;;;8.49;100.00;96093.16;1034035;28;20025;-72
2023/05/25 01:43:40;;;;;;;8.63;3.95;;;;;;;8.45;100.00;96089.41;1034032;28;20088;-72
2023/05/25 01:44:11;;;;;;;13.20;3.92;;;;;;;8.52;100.00;96100.53;1038215;28;20017;-72
2023/05/25 01:44:41;;;;;;;9.68;3.88;;;;;;;8.53;100.00;96096.88;1034035;28;20018;-72
2023/05/25 01:45:12;;;;;;;6.50;3.20;;;;;;;8.44;100.00;96082.63;1026022;28;20019;-72
2023/05/25 01:45:43;;;;;;;11.40;4.15;;;;;;;8.53;100.00;96090.84;1026016;28;20842;-69
2023/05/25 01:46:24;;;;;;;8.18;3.65;;;;;;;8.56;100.00;96098.22;1030023;28;20432;-70
2023/05/25 01:47:01;;;;;;;9.27;4.18;;;;;;;8.49;100.00;96093.16;1032355;28;20430;-71
2023/05/25 01:47:37;;;;;;;12.68;4.60;;;;;;;8.52;100.00;96095.31;1024561;28;20628;-72
2023/05/25 01:48:30;;;;;;;11.05;4.05;;;;;;;8.50;100.00;96098.13;1015397;29;20268;-72
2023/05/25 01:49:27;;;;;;;7.63;3.83;;;;;;;8.53;100.00;96099.50;1022949;28;20298;-71
2023/05/25 01:50:03;;;;;;;8.57;3.40;;;;;;;8.55;100.00;96092.22;1034726;28;20767;-72
2023/05/25 01:50:57;;;;;;;9.25;4.50;;;;;;;8.57;100.00;96097.97;1039127;28;20318;-72
2023/05/25 01:51:46;;;;;;;8.85;3.80;;;;;;;8.56;100.00;96099.00;1034509;28;20689;-72
2023/05/25 01:52:25;;;;;;;10.63;3.97;;;;;;;8.58;100.00;96094.31;1030767;28;20910;-70
2023/05/25 01:53:01;;;;;;;9.10;4.07;;;;;;;8.60;100.00;96104.56;1031035;28;20273;-71
2023/05/25 01:53:36;;;;;;;8.93;3.75;;;;;;;8.60;100.00;96107.94;1030674;28;20276;-71
2023/05/25 01:54:12;;;;;;;10.63;4.60;;;;;;;8.54;100.00;96101.06;1030727;28;20264;-71
2023/05/25 01:54:46;;;;;;;11.45;4.00;;;;;;;8.58;100.00;96106.59;1026982;28;20721;-72
2023/05/25 01:55:17;;;;;;;9.32;4.40;;;;;;;8.61;100.00;96111.34;1025950;28;20273;-72
2023/05/25 01:55:58;;;;;;;9.23;3.95;;;;;;;8.60;100.00;96110.56;1015015;29;20646;-72
2023/05/25 01:56:29;;;;;;;8.77;4.22;;;;;;;8.59;100.00;96109.00;1016826;29;20137;-71
2023/05/25 01:57:00;;;;;;;10.63;3.78;;;;;;;8.55;100.00;96100.06;1028388;28;20855;-71
2023/05/25 01:57:32;;;;;;;7.43;3.70;;;;;;;8.57;100.00;96111.03;1032640;28;20125;-72
2023/05/25 01:58:03;;;;;;;8.75;3.55;;;;;;;8.55;100.00;96101.84;1035044;28;20376;-72
2023/05/25 01:58:41;;;;;;;13.20;4.30;;;;;;;8.61;100.00;96106.13;1020317;29;20278;-71
2023/05/25 01:59:12;;;;;;;7.70;3.85;;;;;;;8.53;100.00;96099.50;1022899;29;20114;-71
2023/05/25 01:59:43;;;;;;;7.07;3.72;;;;;;;8.57;100.00;96105.03;1026800;28;20270;-71
2023/05/25 02:00:14;;;;;;;8.65;3.90;;;;;;;8.59;100.00;96109.00;1024731;28;20274;-71
2023/05/25 02:00:46;;;;;;;9.43;4.00;;;;;;;8.63;100.00;96112.72;1026877;28;20118;-72
2023/05/25 02:01:16;;;;;;;11.20;4.10;;;;;;;8.58;100.00;96102.16;1029803;28;20041;-71
2023/05/25 02:01:47;;;;;;;9.18;4.00;;;;;;;8.57;100.00;96100.59;1030596;28;20313;-71
2023/05/25 02:02:18;;;;;;;7.90;3.58;;;;;;;8.64;100.00;96103.81;1034845;28;20060;-72
2023/05/25 02:02:48;;;;;;;9.82;3.95;;;;;;;8.64;100.00;96106.44;1030657;28;20789;-72
2023/05/25 02:03:19;;;;;;;7.93;4.25;;;;;;;8.55;100.00;96092.22;1022799;29;20436;-72
2023/05/25 02:03:50;;;;;;;12.55;4.20;;;;;;;8.59;100.00;96106.38;1034273;28;20120;-72
2023/05/25 02:04:21;;;;;;;11.52;3.95;;;;;;;8.51;100.00;96096.31;1026816;28;20105;-72
2023/05/25 02:04:53;;;;;;;13.20;4.10;;;;;;;8.53;100.00;96101.31;1026753;28;20097;-71
2023/05/25 02:05:23;;;;;;;9.43;3.63;;;;;;;8.54;100.00;96106.28;1024392;28;20266;-72
2023/05/25 02:05:54;;;;;;;9.95;3.97;;;;;;;8.54;100.00;96101.06;1023164;28;20271;-71
2023/05/25 02:06:25;;;;;;;7.07;4.10;;;;;;;8.50;100.00;96098.13;1026790;28;20023;-72
2023/05/25 02:06:55;;;;;;;14.15;4.38;;;;;;;8.47;100.00;96095.22;1029631;28;20026;-71
2023/05/25 02:07:26;;;;;;;9.25;3.78;;;;;;;8.51;100.00;96106.78;1026712;28;20285;-71
2023/05/25 02:07:56;;;;;;;11.50;3.78;;;;;;;8.49;100.00;96103.63;1019087;29;20035;-72
2023/05/25 02:08:27;;;;;;;10.82;4.10;;;;;;;8.51;100.00;96104.16;1011252;29;20029;-72
2023/05/25 02:08:57;;;;;;;9.48;4.00;;;;;;;8.49;100.00;96103.63;1022718;28;20644;-72
2023/05/25 02:09:28;;;;;;;9.38;3.38;;;;;;;8.51;100.00;96106.78;1035034;28;20549;-72
2023/05/25 02:09:58;;;;;;;12.32;4.18;;;;;;;8.52;100.00;96100.53;1039009;28;20545;-71
2023/05/25 02:10:28;;;;;;;7.50;3.83;;;;;;;8.50;100.00;96105.97;1034746;28;20026;-71
2023/05/25 02:10:59;;;;;;;9.95;4.32;;;;;;;8.52;100.00;96099.72;1026336;28;20031;-72
2023/05/25 02:11:30;;;;;;;10.48;4.40;;;;;;;8.49;100.00;96109.63;1022719;29;20078;-71
2023/05/25 02:12:01;;;;;;;11.57;4.00;;;;;;;8.49;100.00;96101.00;1022997;28;20334;-70
2023/05/25 02:12:31;;;;;;;9.98;4.00;;;;;;;8.41;100.00;96091.72;1031157;28;20459;-71
2023/05/25 02:13:02;;;;;;;7.93;4.35;;;;;;;8.40;100.00;96086.75;1034808;28;20032;-72
2023/05/25 02:13:32;;;;;;;7.20;4.03;;;;;;;8.45;100.00;96102.50;1026782;28;20719;-72
2023/05/25 02:14:03;;;;;;;10.40;3.80;;;;;;;8.37;100.00;96097.66;1026676;28;20575;-71
2023/05/25 02:14:33;;;;;;;8.30;3.47;;;;;;;8.40;100.00;96105.06;1030698;28;20479;-73
2023/05/25 02:15:04;;;;;;;13.43;4.47;;;;;;;8.39;100.00;96095.63;1030933;28;20022;-72
2023/05/25 02:15:35;;;;;;;7.85;3.42;;;;;;;8.34;100.00;96092.91;1034617;28;20025;-71
2023/05/25 02:16:06;;;;;;;12.50;4.18;;;;;;;8.38;100.00;96094.03;1030889;28;20977;-70
2023/05/25 02:16:36;;;;;;;12.05;4.38;;;;;;;8.33;100.00;96099.94;1030885;28;20030;-72
2023/05/25 02:17:07;;;;;;;9.68;4.38;;;;;;;8.36;100.00;96098.69;1030834;28;20257;-71
2023/05/25 02:17:37;;;;;;;12.48;3.88;;;;;;;8.32;100.00;96089.75;1034821;28;20109;-70
2023/05/25 02:18:08;;;;;;;9.20;3.83;;;;;;;8.19;100.00;96073.34;1026792;28;20038;-72
2023/05/25 02:18:38;;;;;;;7.88;4.45;;;;;;;8.32;100.00;96100.22;1026823;28;20097;-71
2023/05/25 02:19:11;;;;;;;11.20;4.85;;;;;;;8.30;100.00;96097.81;1022630;29;20038;-72
2023/05/25 02:19:41;;;;;;;13.65;4.57;;;;;;;8.31;100.00;96101.22;1015530;29;20395;-71
2023/05/25 02:20:12;;;;;;;11.57;4.68;;;;;;;8.27;100.00;96100.91;1022789;29;20275;-72
2023/05/25 02:20:43;;;;;;;10.38;4.00;;;;;;;8.30;100.00;96097.03;1023735;28;20410;-72
2023/05/25 02:21:15;;;;;;;8.30;3.95;;;;;;;8.27;100.00;96096.47;1034098;28;20283;-71
2023/05/25 02:21:45;;;;;;;9.90;3.80;;;;;;;8.26;100.00;96094.88;1038994;28;20270;-72
2023/05/25 02:22:16;;;;;;;10.98;4.88;;;;;;;8.23;100.00;96103.19;1030779;28;20281;-71
2023/05/25 02:22:46;;;;;;;9.20;3.80;;;;;;;8.21;100.00;96097.41;1033074;28;20030;-72
2023/05/25 02:23:17;;;;;;;9.93;4.80;;;;;;;8.24;100.00;96093.53;1030250;28;20027;-72
2023/05/25 02:23:48;;;;;;;9.68;4.15;;;;;;;8.23;100.00;96097.97;1026776;28;20023;-72
2023/05/25 02:24:18;;;;;;;10.23;4.38;;;;;;;8.22;100.00;96098.22;1039345;28;20264;-71
2023/05/25 02:24:49;;;;;;;10.10;4.07;;;;;;;8.23;100.00;96095.34;1031481;28;20026;-71
2023/05/25 02:25:20;;;;;;;14.32;4.47;;;;;;;8.22;100.00;96093.00;1031513;28;20050;-72
2023/05/25 02:25:50;;;;;;;12.05;3.97;;;;;;;8.21;100.00;96091.41;1031170;28;20041;-72
2023/05/25 02:26:21;;;;;;;14.95;4.47;;;;;;;8.19;100.00;96093.47;1030402;28;20053;-72
2023/05/25 02:26:51;;;;;;;12.38;4.47;;;;;;;8.22;100.00;96095.63;1035157;28;20033;-71
2023/05/25 02:27:21;;;;;;;9.25;4.30;;;;;;;8.25;100.00;96092.53;1027442;28;20097;-72
2023/05/25 02:27:52;;;;;;;13.88;5.00;;;;;;;8.22;100.00;96090.38;1033255;28;20408;-72
2023/05/25 02:28:22;;;;;;;12.25;4.75;;;;;;;8.21;100.00;96092.19;1035656;28;20381;-71
2023/05/25 02:28:53;;;;;;;12.93;4.18;;;;;;;8.23;100.00;96090.13;1031687;28;20042;-71
2023/05/25 02:29:23;;;;;;;13.88;4.57;;;;;;;8.23;100.00;96092.75;1039438;28;20453;-71